createdAt,value
2022-11-02T00:01:18.724Z,17.57
2022-11-02T00:04:02.749Z,17.63
2022-11-02T00:06:46.832Z,17.27
2022-11-02T00:09:30.762Z,18.13
2022-11-02T00:12:14.751Z,16.93
2022-11-02T00:14:58.863Z,15.47
2022-11-02T00:17:46.581Z,20.50
2022-11-02T00:20:30.760Z,17.73
2022-11-02T00:23:16.530Z,18.07
2022-11-02T00:26:02.816Z,19.03
2022-11-02T00:28:47.120Z,17.77
2022-11-02T00:31:31.246Z,17.53
2022-11-02T00:34:16.781Z,13.87
2022-11-02T00:37:00.833Z,13.73
2022-11-02T00:39:44.829Z,14.73
2022-11-02T00:42:28.793Z,13.30
2022-11-02T00:45:14.812Z,14.23
2022-11-02T00:47:59.297Z,15.07
2022-11-02T00:50:47.487Z,15.63
2022-11-02T00:53:31.910Z,13.63
2022-11-02T00:56:16.692Z,13.37
2022-11-02T00:59:00.935Z,13.33
2022-11-02T01:01:47.599Z,13.87
2022-11-02T01:04:31.662Z,13.17
2022-11-02T01:07:17.118Z,15.40
2022-11-02T01:10:01.301Z,12.77
2022-11-02T01:12:46.904Z,13.27
2022-11-02T01:15:30.928Z,13.40
2022-11-02T01:18:15.642Z,12.20
2022-11-02T01:21:00.352Z,14.13
2022-11-02T01:23:45.898Z,12.60
2022-11-02T01:26:29.923Z,14.37
2022-11-02T01:29:13.898Z,12.33
2022-11-02T01:31:57.825Z,13.97
2022-11-02T01:34:41.839Z,13.43
2022-11-02T01:37:25.811Z,12.37
2022-11-02T01:40:12.631Z,12.03
2022-11-02T01:42:56.614Z,11.60
2022-11-02T01:45:40.724Z,13.03
2022-11-02T01:48:32.392Z,12.80
2022-11-02T01:51:20.727Z,12.03
2022-11-02T01:54:09.481Z,13.57
2022-11-02T01:57:06.353Z,12.00
2022-11-02T01:59:56.667Z,13.67
2022-11-02T02:02:46.624Z,12.73
2022-11-02T02:05:32.411Z,11.80
2022-11-02T02:08:19.888Z,12.93
2022-11-02T02:11:03.808Z,13.20
2022-11-02T02:13:49.654Z,13.60
2022-11-02T02:17:15.750Z,17.27
2022-11-02T02:20:04.243Z,14.23
2022-11-02T02:23:14.866Z,20.70
2022-11-02T02:26:24.959Z,17.20
2022-11-02T02:29:12.764Z,24.53
2022-11-02T02:32:03.908Z,23.70
2022-11-02T02:34:55.172Z,27.47
2022-11-02T02:37:44.759Z,27.67
2022-11-02T02:40:34.955Z,27.13
2022-11-02T02:43:23.315Z,24.63
2022-11-02T02:46:11.703Z,25.03
2022-11-02T02:48:59.379Z,26.30
2022-11-02T02:51:45.918Z,24.73
2022-11-02T02:54:34.214Z,28.37
2022-11-02T02:57:22.193Z,27.40
2022-11-02T03:00:14.098Z,28.63
2022-11-02T03:03:04.581Z,31.77
2022-11-02T03:06:04.490Z,28.80
2022-11-02T03:09:00.006Z,47.27
2022-11-02T03:11:52.785Z,38.03
2022-11-02T03:14:44.783Z,47.60
2022-11-02T03:17:40.534Z,41.60
2022-11-02T03:20:32.127Z,52.53
2022-11-02T03:23:22.112Z,46.97
2022-11-02T03:26:13.907Z,41.77
2022-11-02T03:29:07.278Z,36.83
2022-11-02T03:31:57.853Z,30.47
2022-11-02T03:34:44.395Z,39.53
2022-11-02T03:37:33.322Z,34.70
2022-11-02T03:40:21.864Z,31.60
2022-11-02T03:43:08.580Z,33.23
2022-11-02T03:45:57.326Z,29.27
2022-11-02T03:48:46.633Z,30.83
2022-11-02T03:51:34.422Z,29.07
2022-11-02T03:54:27.699Z,23.80
2022-11-02T03:57:16.772Z,27.40
2022-11-02T04:00:09.410Z,25.17
2022-11-02T04:03:00.665Z,27.23
2022-11-02T04:05:47.042Z,21.93
2022-11-02T04:08:41.788Z,27.47
2022-11-02T04:11:46.831Z,16.87
2022-11-02T04:14:41.511Z,23.43
2022-11-02T04:17:47.761Z,18.03
2022-11-02T04:20:33.734Z,24.23
2022-11-02T04:23:35.263Z,15.93
2022-11-02T04:26:19.697Z,19.10
2022-11-02T04:29:05.121Z,19.37
2022-11-02T04:31:48.932Z,17.33
2022-11-02T04:34:31.853Z,23.50
2022-11-02T04:40:18.054Z,18.60
2022-11-02T04:43:02.257Z,23.97
2022-11-02T04:45:47.436Z,21.63
2022-11-02T04:48:31.282Z,19.73
2022-11-02T04:51:15.814Z,22.37
2022-11-02T04:54:00.774Z,20.17
2022-11-02T04:56:45.939Z,20.57
2022-11-02T04:59:30.900Z,20.57
2022-11-02T05:02:17.360Z,22.53
2022-11-02T05:05:01.848Z,26.53
2022-11-02T05:07:46.802Z,21.90
2022-11-02T05:10:31.485Z,19.43
2022-11-02T05:13:15.578Z,17.10
2022-11-02T05:16:00.671Z,19.03
2022-11-02T05:18:47.769Z,22.60
2022-11-02T05:21:33.393Z,24.00
2022-11-02T05:24:17.641Z,20.20
2022-11-02T05:27:02.305Z,21.57
2022-11-02T05:29:49.906Z,19.27
2022-11-02T05:32:34.820Z,19.40
2022-11-02T05:35:21.289Z,21.97
2022-11-02T05:38:05.222Z,21.80
2022-11-02T05:40:53.713Z,24.70
2022-11-02T05:43:38.660Z,22.63
2022-11-02T05:46:25.036Z,31.40
2022-11-02T05:49:09.114Z,25.27
2022-11-02T05:51:54.507Z,23.23
2022-11-02T05:54:38.487Z,32.03
2022-11-02T05:57:22.559Z,26.77
2022-11-02T06:00:07.947Z,24.67
2022-11-02T06:02:59.910Z,32.73
2022-11-02T06:05:43.908Z,34.17
2022-11-02T06:08:29.934Z,33.07
2022-11-02T06:11:14.872Z,30.37
2022-11-02T06:13:58.845Z,28.40
2022-11-02T06:16:42.948Z,34.47
2022-11-02T06:19:26.863Z,29.40
2022-11-02T06:22:10.788Z,33.93
2022-11-02T06:24:56.250Z,30.43
2022-11-02T06:27:45.762Z,31.90
2022-11-02T06:30:30.774Z,27.10
2022-11-02T06:33:14.892Z,33.47
2022-11-02T06:35:59.251Z,34.07
2022-11-02T06:38:44.300Z,31.43
2022-11-02T06:41:29.753Z,30.50
2022-11-02T06:44:13.693Z,29.83
2022-11-02T06:46:57.656Z,30.20
2022-11-02T06:49:41.546Z,26.57
2022-11-02T06:52:25.461Z,32.73
2022-11-02T06:55:10.585Z,34.27
2022-11-02T06:57:57.445Z,38.00
2022-11-02T07:00:41.348Z,34.90
2022-11-02T07:03:25.541Z,25.90
2022-11-02T07:06:14.101Z,24.03
2022-11-02T07:08:58.525Z,22.63
2022-11-02T07:11:42.512Z,24.27
2022-11-02T07:14:27.998Z,27.00
2022-11-02T07:17:11.933Z,23.93
2022-11-02T07:19:56.036Z,31.90
2022-11-02T07:22:39.975Z,28.10
2022-11-02T08:09:11.107Z,19.52
2022-11-02T08:11:57.825Z,18.70
2022-11-02T08:14:42.962Z,18.87
2022-11-02T08:17:26.988Z,20.53
2022-11-02T08:20:12.091Z,22.63
2022-11-02T08:22:56.007Z,23.47
2022-11-02T08:25:41.830Z,22.90
2022-11-02T08:28:27.833Z,22.63
2022-11-02T08:31:16.345Z,17.90
2022-11-02T08:34:00.327Z,18.63
2022-11-02T08:36:46.749Z,20.03
2022-11-02T08:39:30.775Z,22.53
2022-11-02T08:42:16.233Z,19.92
2022-11-02T08:45:00.154Z,19.17
2022-11-02T08:47:44.428Z,18.75
2022-11-02T08:50:28.627Z,17.33
2022-11-02T08:53:12.609Z,21.40
2022-11-02T08:55:58.587Z,17.87
2022-11-02T08:58:43.892Z,17.60
2022-11-02T09:01:27.851Z,19.38
2022-11-02T09:04:11.826Z,17.75
2022-11-02T09:06:55.966Z,20.30
2022-11-02T09:09:39.991Z,19.50
2022-11-02T09:12:24.029Z,22.58
2022-11-02T09:15:10.608Z,21.38
2022-11-02T09:17:54.801Z,25.20
2022-11-02T09:20:38.920Z,19.90
2022-11-02T09:23:23.636Z,22.35
2022-11-02T09:26:07.939Z,23.33
2022-11-02T09:28:52.027Z,22.55
2022-11-02T09:31:37.510Z,28.35
2022-11-02T09:34:21.513Z,23.10
2022-11-02T09:37:05.438Z,27.02
2022-11-02T09:39:49.486Z,23.55
2022-11-02T09:42:43.346Z,22.73
2022-11-02T09:45:29.038Z,23.25
2022-11-02T09:48:24.814Z,26.95
2022-11-02T09:51:15.884Z,29.85
2022-11-02T09:54:09.426Z,25.15
2022-11-02T09:57:02.001Z,25.15
2022-11-02T09:59:45.944Z,26.58
2022-11-02T10:02:48.973Z,24.98
2022-11-02T10:05:43.152Z,24.58
2022-11-02T10:08:39.927Z,30.40
2022-11-02T10:11:34.711Z,18.08
2022-11-02T10:14:24.083Z,16.95
2022-11-02T10:17:15.750Z,27.33
2022-11-02T10:20:06.936Z,23.23
2022-11-02T10:22:53.047Z,19.10
2022-11-02T10:25:38.754Z,17.27
2022-11-02T10:28:27.137Z,15.52
2022-11-02T10:31:24.792Z,26.15
2022-11-02T10:34:20.915Z,21.75
2022-11-02T10:37:23.684Z,22.10
2022-11-02T10:40:21.647Z,17.48
2022-11-02T10:43:16.948Z,13.15
2022-11-02T10:46:16.752Z,15.70
2022-11-02T10:49:10.556Z,17.15
2022-11-02T10:51:54.404Z,13.85
2022-11-02T10:54:38.842Z,12.88
2022-11-02T10:57:26.386Z,12.80
2022-11-02T11:00:24.615Z,14.73
2022-11-02T11:03:11.402Z,12.05
2022-11-02T11:06:00.667Z,11.70
2022-11-02T11:08:47.097Z,16.65
2022-11-02T11:11:34.714Z,15.60
2022-11-02T11:20:37.075Z,13.55
2022-11-02T11:23:23.561Z,13.43
2022-11-02T11:26:13.402Z,13.43
2022-11-02T11:28:58.416Z,11.05
2022-11-02T11:31:43.971Z,9.82
2022-11-02T11:34:31.725Z,12.65
2022-11-02T11:37:18.065Z,8.88
2022-11-02T11:40:04.331Z,8.90
2022-11-02T11:42:51.821Z,10.90
2022-11-02T11:45:35.977Z,7.70
2022-11-02T11:48:29.046Z,9.75
2022-11-02T11:51:27.895Z,19.60
2022-11-02T11:54:25.486Z,11.23
2022-11-02T11:57:25.404Z,9.95
2022-11-02T12:00:28.033Z,9.50
2022-11-02T12:03:13.778Z,13.73
2022-11-02T12:06:10.146Z,13.65
2022-11-02T12:09:05.248Z,11.95
2022-11-02T12:11:58.523Z,11.27
2022-11-02T12:14:53.998Z,13.65
2022-11-02T12:17:51.213Z,13.95
2022-11-02T12:20:51.498Z,13.52
2022-11-02T12:53:38.773Z,11.60
2022-11-02T12:56:26.162Z,9.90
2022-11-02T12:59:17.947Z,13.32
2022-11-02T13:02:08.145Z,9.57
2022-11-02T13:04:57.256Z,11.88
2022-11-02T13:07:45.249Z,12.70
2022-11-02T13:10:36.107Z,10.57
2022-11-02T13:13:26.209Z,9.95
2022-11-02T13:16:12.241Z,6.32
2022-11-02T13:18:58.260Z,5.47
2022-11-02T13:21:47.364Z,10.73
2022-11-02T13:24:34.971Z,14.43
2022-11-02T13:27:37.522Z,9.13
2022-11-02T13:30:22.503Z,11.10
2022-11-02T13:33:15.233Z,9.48
2022-11-02T13:35:59.091Z,10.05
2022-11-02T13:38:48.293Z,10.77
2022-11-02T13:41:50.924Z,6.75
2022-11-02T13:45:11.313Z,7.85
2022-11-02T13:48:30.622Z,9.48
2022-11-02T13:51:24.807Z,8.00
2022-11-02T13:54:16.181Z,9.57
2022-11-02T13:57:00.699Z,8.57
2022-11-02T13:59:46.424Z,8.52
2022-11-02T14:02:38.353Z,21.80
2022-11-02T14:05:29.138Z,10.95
2022-11-02T14:08:22.603Z,10.65
2022-11-02T14:11:23.108Z,12.75
2022-11-02T14:14:25.802Z,10.85
2022-11-02T14:17:15.044Z,12.93
2022-11-02T14:20:04.940Z,10.70
2022-11-02T14:23:35.106Z,12.98
2022-11-02T14:26:34.133Z,13.05
2022-11-02T14:29:49.384Z,18.45
2022-11-02T14:32:49.844Z,10.48
2022-11-02T14:35:47.253Z,11.30
2022-11-02T14:38:53.904Z,18.83
2022-11-02T14:42:09.157Z,13.32
2022-11-02T14:45:11.317Z,9.40
2022-11-02T14:48:00.248Z,14.10
2022-11-02T14:50:59.353Z,11.35
2022-11-02T14:53:44.067Z,18.58
2022-11-02T14:56:50.236Z,16.52
2022-11-02T14:59:42.138Z,11.82
2022-11-02T15:02:31.370Z,15.38
2022-11-02T15:05:25.768Z,14.38
2022-11-02T15:08:25.003Z,19.33
2022-11-02T15:11:48.333Z,20.40
2022-11-02T15:15:03.257Z,13.18
2022-11-02T15:18:22.732Z,15.57
2022-11-02T15:21:25.762Z,21.20
2022-11-02T15:24:17.653Z,13.68
2022-11-02T15:27:02.857Z,12.75
2022-11-02T15:29:47.619Z,14.13
2022-11-02T15:32:34.298Z,18.30
2022-11-02T15:35:22.350Z,12.30
2022-11-02T15:38:17.382Z,13.98
2022-11-02T15:41:21.125Z,18.85
2022-11-02T15:44:23.304Z,17.83
2022-11-02T15:47:18.798Z,18.85
2022-11-02T15:50:16.244Z,17.17
2022-11-02T15:53:24.820Z,20.75
2022-11-02T15:56:26.698Z,21.23
2022-11-02T15:59:31.325Z,12.00
2022-11-02T16:02:37.575Z,19.83
2022-11-02T16:05:23.943Z,21.55
2022-11-02T16:08:23.670Z,41.47
2022-11-02T16:11:17.453Z,23.90
2022-11-02T16:14:18.009Z,24.95
2022-11-02T16:17:02.131Z,20.67
2022-11-02T16:19:46.039Z,22.13
2022-11-02T16:22:30.703Z,16.75
2022-11-02T16:25:20.891Z,18.38
2022-11-02T16:28:18.122Z,18.92
2022-11-02T16:31:17.390Z,17.10
2022-11-02T16:34:04.262Z,18.70
2022-11-02T16:36:48.887Z,13.32
2022-11-02T16:39:37.665Z,20.45
2022-11-02T16:42:25.057Z,18.52
2022-11-02T16:45:35.902Z,13.40
2022-11-02T16:48:27.482Z,15.60
2022-11-02T16:51:20.019Z,19.63
2022-11-02T16:54:27.970Z,13.38
2022-11-02T16:57:19.630Z,14.77
2022-11-02T17:00:08.049Z,16.38
2022-11-02T17:02:53.566Z,18.42
2022-11-02T17:05:42.632Z,20.52
2022-11-02T17:08:32.037Z,21.13
2022-11-02T17:11:18.295Z,22.35
2022-11-02T17:14:02.320Z,22.85
2022-11-02T17:16:59.620Z,17.98
2022-11-02T17:19:54.610Z,20.98
2022-11-02T17:22:40.529Z,16.27
2022-11-02T17:25:26.661Z,24.25
2022-11-02T17:28:42.559Z,16.17
2022-11-02T17:31:29.478Z,20.00
2022-11-02T17:34:20.504Z,22.70
2022-11-02T17:37:07.952Z,18.63
2022-11-02T17:39:52.460Z,22.02
2022-11-02T17:42:54.553Z,21.70
2022-11-02T17:45:39.603Z,19.45
2022-11-02T17:48:24.680Z,25.90
2022-11-02T17:51:12.156Z,18.92
2022-11-02T17:53:57.602Z,17.15
2022-11-02T17:56:41.732Z,20.33
2022-11-02T17:59:25.683Z,20.55
2022-11-02T18:02:14.211Z,17.00
2022-11-02T18:04:58.334Z,23.10
2022-11-02T18:07:42.412Z,23.23
2022-11-02T18:10:31.667Z,33.13
2022-11-02T18:13:17.440Z,21.20
2022-11-02T18:16:01.552Z,26.93
2022-11-02T18:18:45.576Z,29.10
2022-11-02T18:21:29.511Z,31.10
2022-11-02T18:24:13.474Z,25.23
2022-11-02T18:26:58.877Z,28.70
2022-11-02T18:29:42.873Z,24.03
2022-11-02T18:32:26.843Z,27.60
2022-11-02T18:35:13.195Z,25.80
2022-11-02T18:37:57.292Z,24.87
2022-11-02T18:40:41.347Z,28.50
2022-11-02T18:43:26.964Z,25.90
2022-11-02T18:46:10.952Z,26.63
2022-11-02T18:48:55.441Z,25.67
2022-11-02T18:51:43.216Z,19.40
2022-11-02T18:54:27.351Z,23.10
2022-11-02T19:00:12.469Z,26.40
2022-11-02T19:02:56.660Z,19.13
2022-11-02T19:08:59.829Z,18.73
2022-11-02T19:11:43.789Z,21.17
2022-11-02T19:14:28.745Z,20.67
2022-11-02T19:17:15.909Z,22.07
2022-11-02T19:19:59.908Z,22.57
2022-11-02T19:22:43.869Z,25.37
2022-11-02T19:25:27.840Z,21.47
2022-11-02T19:28:11.724Z,26.60
2022-11-02T19:30:55.603Z,20.70
2022-11-02T19:33:41.128Z,20.17
2022-11-02T19:36:25.394Z,21.13
2022-11-02T19:39:10.056Z,25.80
2022-11-02T19:41:54.583Z,22.97
2022-11-02T19:44:42.641Z,18.63
2022-11-02T19:47:27.869Z,21.70
2022-11-02T19:50:13.398Z,25.57
2022-11-02T19:52:57.362Z,24.10
2022-11-02T19:55:41.296Z,21.77
2022-11-02T19:58:25.157Z,19.93
2022-11-02T20:01:10.530Z,20.60
2022-11-02T20:03:55.197Z,16.93
2022-11-02T20:06:41.930Z,21.00
2022-11-02T20:09:25.957Z,18.20
2022-11-02T20:12:10.122Z,24.20
2022-11-02T20:14:54.273Z,19.13
2022-11-02T20:17:58.328Z,26.87
2022-11-02T20:20:42.432Z,20.17
2022-11-02T20:23:28.059Z,21.23
2022-11-02T20:26:15.070Z,18.93
2022-11-02T20:29:00.457Z,26.83
2022-11-02T20:31:44.802Z,22.57
2022-11-02T20:34:29.102Z,25.03
2022-11-02T20:37:13.222Z,21.87
2022-11-02T20:39:59.571Z,21.53
2022-11-02T20:42:43.604Z,18.10
2022-11-02T20:45:28.619Z,18.47
2022-11-02T20:48:12.949Z,20.73
2022-11-02T20:50:57.079Z,22.07
2022-11-02T20:53:41.250Z,21.63
2022-11-02T20:56:26.753Z,20.00
2022-11-02T20:59:10.741Z,16.20
2022-11-02T21:01:54.714Z,29.83
2022-11-02T21:04:38.667Z,20.40
2022-11-02T21:07:22.681Z,25.77
2022-11-02T21:10:07.900Z,21.60
2022-11-02T21:13:18.984Z,23.17
2022-11-02T21:16:04.239Z,20.13
2022-11-02T21:18:48.538Z,20.93
2022-11-02T21:21:32.408Z,23.20
2022-11-02T21:24:16.321Z,21.80
2022-11-02T21:27:00.232Z,21.37
2022-11-02T21:29:45.628Z,17.50
2022-11-02T21:32:29.615Z,22.67
2022-11-02T21:35:13.621Z,19.23
2022-11-02T21:38:01.332Z,20.50
2022-11-02T21:40:47.812Z,20.73
2022-11-02T21:43:32.844Z,21.83
2022-11-02T21:46:19.002Z,21.00
2022-11-02T21:49:03.107Z,22.13
2022-11-02T21:51:47.191Z,18.13
2022-11-02T21:54:31.129Z,20.53
2022-11-02T21:57:15.148Z,18.90
2022-11-02T21:59:59.275Z,21.17
2022-11-02T22:02:44.645Z,15.97
2022-11-02T22:05:42.462Z,20.53
2022-11-02T22:08:41.645Z,20.33
2022-11-02T22:11:28.429Z,19.53
2022-11-02T22:14:13.233Z,17.50
2022-11-02T22:16:57.213Z,19.33
2022-11-02T22:19:42.577Z,23.10
2022-11-02T22:22:27.826Z,25.63
2022-11-02T22:25:11.795Z,20.33
2022-11-02T22:27:55.895Z,18.10
2022-11-02T22:30:39.891Z,19.73
2022-11-02T22:33:23.813Z,19.10
2022-11-02T22:36:11.790Z,23.70
2022-11-02T22:38:56.088Z,22.90
2022-11-02T22:41:41.551Z,16.13
2022-11-02T22:44:25.625Z,19.50
2022-11-02T22:47:09.628Z,17.93
2022-11-02T22:49:53.564Z,21.83
2022-11-02T22:52:39.022Z,19.20
2022-11-02T22:55:23.121Z,18.37
2022-11-02T22:58:07.192Z,20.63
2022-11-02T23:00:51.199Z,20.23
2022-11-02T23:03:36.308Z,15.17
2022-11-02T23:06:22.486Z,20.40
2022-11-02T23:09:08.599Z,20.40
2022-11-02T23:11:52.629Z,18.03
2022-11-02T23:14:36.571Z,22.10
2022-11-02T23:17:20.513Z,18.67
2022-11-02T23:20:03.738Z,21.07
2022-11-02T23:23:05.508Z,16.27
2022-11-02T23:25:57.586Z,20.53
2022-11-02T23:28:58.946Z,18.50
2022-11-02T23:32:00.632Z,16.13
2022-11-02T23:35:05.179Z,21.37
2022-11-02T23:37:47.956Z,19.47
2022-11-02T23:40:32.438Z,17.47
2022-11-02T23:43:17.903Z,19.20
2022-11-02T23:46:01.918Z,16.50
2022-11-02T23:48:49.644Z,16.63
2022-11-02T23:51:53.783Z,16.57
2022-11-02T23:55:06.872Z,19.40
2022-11-02T23:57:50.766Z,16.17
